createdAt,value
2023-04-07T00:01:13.998Z,8.40
2023-04-07T00:03:46.949Z,8.60
2023-04-07T00:06:21.337Z,8.54
2023-04-07T00:08:54.187Z,8.50
2023-04-07T00:11:27.075Z,8.43
2023-04-07T00:13:59.851Z,8.63
2023-04-07T00:16:33.145Z,8.39
2023-04-07T00:19:06.200Z,8.41
2023-04-07T00:21:41.298Z,8.39
2023-04-07T00:24:18.544Z,8.45
2023-04-07T00:27:00.941Z,8.40
2023-04-07T00:29:33.757Z,8.29
2023-04-07T00:32:06.579Z,8.54
2023-04-07T00:34:39.486Z,8.45
2023-04-07T00:37:13.914Z,8.34
2023-04-07T00:39:47.357Z,8.21
2023-04-07T00:42:20.354Z,8.16
2023-04-07T00:44:53.282Z,8.21
2023-04-07T00:47:27.031Z,8.12
2023-04-07T00:49:59.999Z,7.98
2023-04-07T00:52:35.296Z,7.84
2023-04-07T00:55:09.122Z,7.83
2023-04-07T00:57:42.004Z,7.70
2023-04-07T01:00:16.622Z,7.92
2023-04-07T01:02:58.830Z,7.93
2023-04-07T01:05:39.957Z,8.04
2023-04-07T01:08:21.407Z,8.02
2023-04-07T01:10:59.744Z,8.16
2023-04-07T01:13:36.547Z,7.94
2023-04-07T01:16:25.299Z,7.99
2023-04-07T01:19:14.801Z,8.05
2023-04-07T01:21:54.166Z,8.32
2023-04-07T01:25:03.604Z,8.09
2023-04-07T01:27:43.873Z,7.76
2023-04-07T01:30:19.390Z,8.11
2023-04-07T01:32:54.262Z,8.26
2023-04-07T01:35:30.667Z,7.99
2023-04-07T01:38:04.797Z,7.90
2023-04-07T01:40:40.445Z,7.83
2023-04-07T01:43:14.487Z,7.71
2023-04-07T01:45:49.923Z,7.79
2023-04-07T01:48:23.728Z,7.35
2023-04-07T01:50:57.959Z,7.51
2023-04-07T01:53:31.667Z,7.71
2023-04-07T01:56:04.833Z,7.72
2023-04-07T01:58:40.040Z,7.64
2023-04-07T02:01:17.193Z,7.75
2023-04-07T02:03:56.218Z,7.82
2023-04-07T02:06:34.403Z,7.19
2023-04-07T02:09:11.873Z,6.93
2023-04-07T02:11:47.123Z,7.23
2023-04-07T02:14:24.355Z,7.35
2023-04-07T02:17:17.858Z,7.24
2023-04-07T02:19:52.835Z,7.40
2023-04-07T02:22:30.575Z,7.36
2023-04-07T02:25:03.788Z,7.54
2023-04-07T02:27:39.934Z,7.30
2023-04-07T02:30:13.642Z,7.12
2023-04-07T02:32:48.378Z,7.41
2023-04-07T02:35:24.848Z,7.29
2023-04-07T02:37:58.087Z,7.16
2023-04-07T02:40:31.537Z,7.56
2023-04-07T02:43:07.473Z,7.30
2023-04-07T02:45:40.505Z,7.22
2023-04-07T02:48:14.862Z,7.46
2023-04-07T02:50:49.238Z,6.89
2023-04-07T02:53:22.941Z,7.08
2023-04-07T02:55:56.169Z,7.38
2023-04-07T02:58:29.136Z,7.64
2023-04-07T03:01:02.146Z,7.52
2023-04-07T03:03:40.055Z,7.55
2023-04-07T03:06:18.246Z,7.28
2023-04-07T03:09:02.990Z,7.27
2023-04-07T03:11:35.936Z,6.80
2023-04-07T03:14:09.425Z,7.33
2023-04-07T03:16:49.646Z,7.16
2023-04-07T03:19:24.153Z,6.85
2023-04-07T03:21:58.592Z,7.19
2023-04-07T03:24:31.975Z,7.28
2023-04-07T03:27:05.964Z,7.23
2023-04-07T03:29:47.912Z,6.95
2023-04-07T03:32:22.621Z,6.72
2023-04-07T03:34:57.211Z,6.98
2023-04-07T03:37:30.438Z,7.23
2023-04-07T03:40:03.419Z,7.34
2023-04-07T03:42:41.020Z,7.30
2023-04-07T03:45:14.936Z,7.30
2023-04-07T03:47:54.277Z,7.24
2023-04-07T03:50:29.491Z,7.09
2023-04-07T03:53:22.530Z,6.94
2023-04-07T03:55:57.557Z,7.23
2023-04-07T03:58:47.110Z,6.93
2023-04-07T04:01:25.973Z,6.81
2023-04-07T04:04:00.256Z,6.80
2023-04-07T04:06:37.157Z,6.62
2023-04-07T04:09:18.684Z,6.27
2023-04-07T04:11:54.175Z,6.26
2023-04-07T04:14:26.992Z,6.50
2023-04-07T04:17:05.872Z,6.31
2023-04-07T04:19:47.072Z,6.51
2023-04-07T04:22:32.822Z,6.28
2023-04-07T04:25:06.266Z,6.16
2023-04-07T04:27:39.754Z,6.65
2023-04-07T04:30:21.363Z,6.34
2023-04-07T04:33:01.414Z,6.38
2023-04-07T04:35:41.956Z,6.46
2023-04-07T04:38:20.647Z,6.38
2023-04-07T04:41:13.898Z,6.42
2023-04-07T04:43:47.852Z,6.53
2023-04-07T04:46:24.633Z,6.32
2023-04-07T04:48:57.999Z,6.35
2023-04-07T04:51:31.846Z,6.38
2023-04-07T04:54:11.394Z,6.36
2023-04-07T04:56:44.551Z,6.16
2023-04-07T04:59:17.625Z,6.02
2023-04-07T05:02:02.127Z,6.26
2023-04-07T05:04:36.789Z,6.12
2023-04-07T05:07:26.714Z,6.24
2023-04-07T05:10:01.435Z,6.06
2023-04-07T05:12:35.476Z,5.98
2023-04-07T05:15:09.507Z,6.13
2023-04-07T05:17:42.908Z,6.19
2023-04-07T05:20:19.776Z,6.11
2023-04-07T05:22:52.697Z,6.10
2023-04-07T05:25:30.919Z,6.12
2023-04-07T05:28:08.100Z,6.34
2023-04-07T05:30:41.017Z,6.28
2023-04-07T05:33:14.448Z,6.34
2023-04-07T05:35:58.973Z,6.29
2023-04-07T05:38:32.054Z,6.31
2023-04-07T05:41:13.258Z,6.13
2023-04-07T05:43:46.885Z,6.15
2023-04-07T05:46:21.602Z,6.28
2023-04-07T05:49:02.608Z,6.48
2023-04-07T05:51:38.363Z,6.34
2023-04-07T05:54:16.560Z,6.38
2023-04-07T05:56:51.195Z,6.31
2023-04-07T05:59:24.572Z,6.46
2023-04-07T06:01:58.539Z,6.44
2023-04-07T06:04:32.939Z,6.88
2023-04-07T06:07:06.392Z,6.83
2023-04-07T06:09:39.105Z,6.96
2023-04-07T06:12:13.506Z,6.93
2023-04-07T06:14:52.675Z,6.90
2023-04-07T06:17:25.777Z,7.11
2023-04-07T06:19:58.494Z,6.91
2023-04-07T06:22:31.274Z,6.82
2023-04-07T06:25:04.070Z,7.03
2023-04-07T06:27:39.453Z,7.20
2023-04-07T06:30:12.923Z,7.17
2023-04-07T06:32:45.718Z,6.86
2023-04-07T06:35:18.642Z,6.86
2023-04-07T06:37:51.445Z,6.88
2023-04-07T06:40:24.225Z,7.15
2023-04-07T06:42:58.593Z,7.04
2023-04-07T06:45:42.838Z,7.04
2023-04-07T06:48:16.184Z,7.21
2023-04-07T06:50:50.857Z,7.05
2023-04-07T06:53:23.808Z,6.89
2023-04-07T06:56:04.393Z,7.00
2023-04-07T06:58:38.737Z,7.09
2023-04-07T07:01:11.638Z,7.12
2023-04-07T07:03:44.887Z,6.98
2023-04-07T07:06:17.795Z,7.00
2023-04-07T07:08:50.984Z,7.26
2023-04-07T07:11:23.757Z,7.01
2023-04-07T07:13:57.847Z,7.30
2023-04-07T07:16:30.810Z,7.78
2023-04-07T07:19:03.658Z,7.88
2023-04-07T07:21:36.571Z,7.78
2023-04-07T07:24:09.537Z,7.78
2023-04-07T07:26:44.517Z,8.09
2023-04-07T07:29:18.974Z,8.29
2023-04-07T07:31:52.513Z,8.01
2023-04-07T07:34:26.380Z,8.02
2023-04-07T07:36:59.973Z,8.00
2023-04-07T07:39:33.113Z,8.06
2023-04-07T07:42:06.069Z,7.68
2023-04-07T07:44:40.336Z,7.63
2023-04-07T07:47:13.535Z,7.62
2023-04-07T07:49:46.490Z,8.03
2023-04-07T07:52:20.714Z,7.69
2023-04-07T07:54:55.196Z,7.58
2023-04-07T07:57:28.136Z,7.48
2023-04-07T08:00:03.000Z,8.03
2023-04-07T08:02:46.572Z,8.05
2023-04-07T08:05:19.614Z,7.97
2023-04-07T08:07:54.667Z,7.97
2023-04-07T08:10:27.744Z,8.38
2023-04-07T08:13:00.862Z,8.12
2023-04-07T08:15:35.179Z,7.92
2023-04-07T08:18:11.137Z,8.03
2023-04-07T08:20:43.959Z,8.13
2023-04-07T08:23:16.753Z,8.53
2023-04-07T08:25:49.556Z,8.32
2023-04-07T08:28:23.135Z,8.42
2023-04-07T08:30:57.333Z,8.71
2023-04-07T08:33:30.101Z,8.62
2023-04-07T08:36:03.094Z,8.74
2023-04-07T08:38:35.953Z,8.62
2023-04-07T08:41:11.776Z,8.81
2023-04-07T08:43:47.173Z,9.23
2023-04-07T08:46:23.792Z,9.04
2023-04-07T08:48:58.401Z,9.30
2023-04-07T08:51:33.152Z,9.36
2023-04-07T08:54:10.538Z,9.43
2023-04-07T08:56:44.425Z,9.66
2023-04-07T08:59:18.767Z,9.49
2023-04-07T09:01:53.750Z,9.88
2023-04-07T09:04:27.584Z,9.43
2023-04-07T09:07:02.085Z,10.04
2023-04-07T09:09:35.001Z,10.07
2023-04-07T09:12:07.886Z,9.77
2023-04-07T09:14:41.175Z,9.36
2023-04-07T09:17:15.376Z,10.42
2023-04-07T09:19:48.283Z,10.50
2023-04-07T09:22:36.020Z,10.52
2023-04-07T09:25:14.614Z,10.31
2023-04-07T09:27:58.882Z,10.28
2023-04-07T09:30:33.146Z,10.77
2023-04-07T09:33:07.329Z,11.14
2023-04-07T09:35:53.404Z,11.50
2023-04-07T09:38:34.418Z,11.90
2023-04-07T09:41:09.087Z,11.41
2023-04-07T09:43:44.948Z,11.55
2023-04-07T09:46:19.720Z,11.52
2023-04-07T09:49:05.059Z,12.21
2023-04-07T09:51:38.170Z,12.41
2023-04-07T09:54:11.519Z,11.35
2023-04-07T09:56:46.185Z,11.82
2023-04-07T09:59:19.592Z,11.28
2023-04-07T10:01:55.029Z,10.64
2023-04-07T10:04:30.931Z,10.94
2023-04-07T10:07:04.337Z,10.62
2023-04-07T10:09:37.209Z,11.35
2023-04-07T10:12:10.396Z,11.90
2023-04-07T10:14:47.044Z,11.03
2023-04-07T10:17:21.010Z,11.22
2023-04-07T10:19:56.993Z,11.26
2023-04-07T10:22:31.754Z,11.26
2023-04-07T10:25:11.209Z,11.80
2023-04-07T10:27:51.078Z,11.20
2023-04-07T10:30:27.518Z,11.62
2023-04-07T10:33:00.531Z,11.94
2023-04-07T10:36:04.653Z,12.20
2023-04-07T10:38:37.951Z,11.44
2023-04-07T10:41:39.113Z,12.11
2023-04-07T10:45:00.782Z,12.35
2023-04-07T10:47:35.182Z,12.72
2023-04-07T10:50:31.491Z,11.91
2023-04-07T10:53:13.392Z,12.12
2023-04-07T10:56:04.289Z,12.20
2023-04-07T10:58:46.751Z,12.12
2023-04-07T11:01:21.771Z,12.25
2023-04-07T11:04:01.009Z,12.93
2023-04-07T11:06:34.673Z,12.97
2023-04-07T11:09:20.355Z,12.68
2023-04-07T11:11:53.570Z,13.26
2023-04-07T11:14:30.656Z,13.13
2023-04-07T11:17:04.232Z,13.26
2023-04-07T11:19:52.086Z,12.68
2023-04-07T11:22:29.941Z,12.66
2023-04-07T11:25:05.492Z,13.02
2023-04-07T11:27:38.573Z,11.75
2023-04-07T11:30:13.622Z,12.08
2023-04-07T11:32:50.849Z,12.14
2023-04-07T11:35:24.339Z,11.91
2023-04-07T11:38:01.965Z,12.76
2023-04-07T11:40:38.692Z,13.07
2023-04-07T11:43:19.259Z,13.06
2023-04-07T11:46:11.500Z,13.00
2023-04-07T11:48:47.404Z,12.41
2023-04-07T11:51:23.975Z,12.14
2023-04-07T11:53:57.571Z,12.83
2023-04-07T11:56:31.820Z,12.80
2023-04-07T11:59:04.933Z,13.34
2023-04-07T12:01:42.021Z,12.69
2023-04-07T12:04:16.196Z,13.00
2023-04-07T12:06:50.055Z,13.71
2023-04-07T12:09:32.465Z,13.36
2023-04-07T12:12:08.764Z,13.05
2023-04-07T12:14:41.659Z,13.43
2023-04-07T12:17:22.087Z,13.68
2023-04-07T12:19:54.941Z,14.44
2023-04-07T12:22:28.402Z,14.41
2023-04-07T12:25:01.287Z,15.07
2023-04-07T12:27:42.904Z,13.90
2023-04-07T12:30:16.682Z,14.74
2023-04-07T12:32:49.667Z,15.09
2023-04-07T12:35:22.928Z,13.89
2023-04-07T12:37:56.772Z,13.54
2023-04-07T12:40:29.659Z,13.97
2023-04-07T12:43:07.540Z,12.76
2023-04-07T12:45:40.468Z,13.56
2023-04-07T12:48:13.670Z,13.59
2023-04-07T12:50:46.595Z,14.29
2023-04-07T12:53:20.001Z,13.38
2023-04-07T12:55:52.869Z,13.32
2023-04-07T12:58:27.514Z,13.80
2023-04-07T13:01:00.907Z,13.79
2023-04-07T13:03:34.278Z,13.83
2023-04-07T13:06:07.537Z,13.41
2023-04-07T13:08:41.404Z,13.65
2023-04-07T13:11:14.540Z,14.00
2023-04-07T13:13:49.158Z,14.12
2023-04-07T13:16:22.072Z,14.31
2023-04-07T13:18:54.878Z,14.35
2023-04-07T13:21:45.412Z,14.72
2023-04-07T13:24:21.673Z,15.09
2023-04-07T13:26:54.787Z,14.83
2023-04-07T13:29:29.626Z,14.59
2023-04-07T13:32:07.407Z,14.75
2023-04-07T13:34:41.213Z,15.37
2023-04-07T13:37:14.031Z,15.50
2023-04-07T13:39:46.957Z,15.54
2023-04-07T13:42:20.959Z,15.14
2023-04-07T13:45:00.333Z,15.17
2023-04-07T13:47:36.717Z,15.38
2023-04-07T13:50:10.630Z,15.60
2023-04-07T13:52:46.386Z,15.96
2023-04-07T13:55:20.407Z,15.87
2023-04-07T13:57:53.170Z,15.84
2023-04-07T14:00:27.371Z,16.73
2023-04-07T14:03:00.515Z,16.15
2023-04-07T14:05:33.599Z,16.12
2023-04-07T14:08:06.505Z,16.75
2023-04-07T14:10:40.858Z,16.53
2023-04-07T14:13:13.746Z,16.17
2023-04-07T14:15:48.796Z,16.21
2023-04-07T14:18:21.655Z,16.78
2023-04-07T14:20:54.481Z,15.97
2023-04-07T14:23:36.686Z,17.07
2023-04-07T14:26:12.254Z,16.91
2023-04-07T14:28:45.186Z,15.39
2023-04-07T14:31:19.735Z,15.85
2023-04-07T14:33:52.898Z,16.11
2023-04-07T14:36:26.057Z,15.84
2023-04-07T14:38:59.312Z,16.54
2023-04-07T14:41:32.611Z,15.80
2023-04-07T14:44:06.287Z,15.60
2023-04-07T14:46:41.916Z,16.08
2023-04-07T14:49:15.716Z,16.57
2023-04-07T14:51:48.709Z,16.45
2023-04-07T14:54:21.953Z,15.88
2023-04-07T14:56:54.928Z,15.80
2023-04-07T14:59:27.828Z,16.00
2023-04-07T15:02:02.659Z,16.02
2023-04-07T15:04:36.549Z,16.40
2023-04-07T15:07:09.673Z,16.27
2023-04-07T15:09:42.673Z,16.42
2023-04-07T15:12:15.903Z,15.89
2023-04-07T15:14:53.859Z,15.82
2023-04-07T15:17:42.420Z,15.87
2023-04-07T15:20:16.240Z,15.58
2023-04-07T15:22:49.237Z,15.38
2023-04-07T15:25:23.485Z,15.30
2023-04-07T15:27:56.659Z,15.41
2023-04-07T15:30:34.707Z,15.28
2023-04-07T15:33:10.089Z,14.78
2023-04-07T15:35:44.053Z,15.48
2023-04-07T15:38:17.329Z,15.50
2023-04-07T15:40:50.607Z,15.00
2023-04-07T15:43:23.591Z,15.07
2023-04-07T15:45:57.137Z,15.00
2023-04-07T15:48:31.459Z,14.77
2023-04-07T15:51:04.407Z,14.81
2023-04-07T15:53:37.499Z,14.85
2023-04-07T15:56:12.517Z,14.88
2023-04-07T15:58:47.181Z,14.81
2023-04-07T16:01:20.470Z,14.98
2023-04-07T16:03:55.092Z,14.32
2023-04-07T16:06:28.146Z,14.48
2023-04-07T16:09:01.261Z,14.41
2023-04-07T16:11:34.282Z,14.86
2023-04-07T16:14:09.038Z,14.69
2023-04-07T16:16:44.502Z,14.70
2023-04-07T16:19:19.019Z,14.79
2023-04-07T16:21:52.077Z,14.72
2023-04-07T16:24:24.926Z,14.91
2023-04-07T16:26:57.928Z,14.79
2023-04-07T16:29:30.850Z,14.66
2023-04-07T16:32:04.472Z,14.90
2023-04-07T16:34:38.671Z,14.54
2023-04-07T16:37:11.666Z,14.84
2023-04-07T16:39:44.628Z,14.47
2023-04-07T16:42:17.619Z,14.60
2023-04-07T16:44:50.646Z,14.87
2023-04-07T16:47:23.458Z,15.09
2023-04-07T16:49:58.678Z,14.68
2023-04-07T16:52:31.854Z,14.50
2023-04-07T16:55:05.233Z,14.46
2023-04-07T16:57:38.001Z,14.21
2023-04-07T17:00:11.844Z,14.14
2023-04-07T17:02:44.918Z,13.93
2023-04-07T17:05:19.389Z,13.77
2023-04-07T17:07:52.574Z,14.07
2023-04-07T17:10:25.548Z,13.66
2023-04-07T17:12:58.430Z,13.69
2023-04-07T17:15:31.352Z,13.88
2023-04-07T17:18:04.424Z,13.54
2023-04-07T17:20:39.147Z,13.79
2023-04-07T17:23:12.290Z,13.81
2023-04-07T17:25:45.157Z,13.42
2023-04-07T17:28:19.729Z,13.43
2023-04-07T17:30:52.474Z,13.59
2023-04-07T17:33:25.619Z,13.05
2023-04-07T17:36:02.478Z,13.22
2023-04-07T17:38:35.365Z,13.21
2023-04-07T17:41:08.457Z,12.89
2023-04-07T17:43:41.227Z,12.55
2023-04-07T17:46:14.000Z,12.56
2023-04-07T17:48:46.965Z,12.42
2023-04-07T17:51:21.265Z,12.58
2023-04-07T17:53:54.860Z,12.43
2023-04-07T17:56:27.731Z,12.30
2023-04-07T17:59:01.367Z,11.98
2023-04-07T18:01:34.511Z,11.98
2023-04-07T18:04:07.413Z,11.74
2023-04-07T18:06:41.961Z,11.61
2023-04-07T18:09:14.884Z,11.67
2023-04-07T18:11:47.991Z,11.18
2023-04-07T18:14:20.781Z,11.01
2023-04-07T18:16:54.670Z,10.73
2023-04-07T18:19:29.888Z,10.77
2023-04-07T18:22:04.269Z,11.10
2023-04-07T18:24:37.194Z,10.76
2023-04-07T18:27:10.116Z,10.57
2023-04-07T18:29:43.073Z,10.78
2023-04-07T18:32:16.215Z,10.70
2023-04-07T18:34:49.104Z,10.56
2023-04-07T18:37:23.351Z,10.29
2023-04-07T18:39:56.669Z,10.56
2023-04-07T18:42:29.656Z,10.37
2023-04-07T18:45:02.522Z,10.39
2023-04-07T18:47:35.972Z,10.27
2023-04-07T18:50:09.839Z,10.30
2023-04-07T18:52:44.150Z,10.01
2023-04-07T18:55:16.916Z,9.98
2023-04-07T18:57:49.837Z,10.10
2023-04-07T19:00:22.758Z,10.04
2023-04-07T19:02:55.721Z,9.84
2023-04-07T19:05:29.085Z,9.70
2023-04-07T19:08:03.975Z,9.75
2023-04-07T19:10:36.796Z,9.72
2023-04-07T19:13:09.742Z,9.66
2023-04-07T19:15:46.181Z,9.57
2023-04-07T19:18:19.949Z,9.21
2023-04-07T19:20:53.054Z,9.32
2023-04-07T19:23:27.295Z,9.49
2023-04-07T19:26:00.884Z,9.50
2023-04-07T19:28:34.663Z,9.52
2023-04-07T19:31:08.603Z,9.46
2023-04-07T19:33:41.638Z,9.33
2023-04-07T19:36:14.668Z,9.31
2023-04-07T19:38:49.178Z,9.10
2023-04-07T19:41:22.312Z,9.09
2023-04-07T19:43:55.073Z,9.27
2023-04-07T19:46:29.049Z,9.15
2023-04-07T19:49:01.945Z,8.98
2023-04-07T19:51:35.289Z,9.01
2023-04-07T19:54:09.536Z,9.23
2023-04-07T19:56:42.344Z,9.28
2023-04-07T19:59:15.626Z,9.29
2023-04-07T20:01:48.631Z,9.36
2023-04-07T20:04:21.932Z,9.37
2023-04-07T20:06:55.238Z,9.30
2023-04-07T20:09:29.558Z,9.34
2023-04-07T20:12:02.459Z,9.32
2023-04-07T20:14:35.613Z,9.15
2023-04-07T20:17:08.717Z,9.12
2023-04-07T20:19:42.228Z,8.88
2023-04-07T20:22:15.029Z,9.00
2023-04-07T20:24:49.514Z,8.96
2023-04-07T20:27:22.286Z,8.89
2023-04-07T20:29:55.118Z,8.98
2023-04-07T20:32:29.027Z,8.87
2023-04-07T20:35:03.100Z,8.88
2023-04-07T20:37:35.948Z,8.91
2023-04-07T20:40:11.330Z,8.69
2023-04-07T20:42:44.125Z,8.60
2023-04-07T20:45:17.122Z,8.55
2023-04-07T20:47:50.128Z,8.41
2023-04-07T20:50:23.029Z,8.24
2023-04-07T20:52:56.322Z,8.24
2023-04-07T20:55:30.624Z,8.04
2023-04-07T20:58:03.634Z,7.87
2023-04-07T21:00:37.397Z,7.96
2023-04-07T21:03:10.602Z,7.82
2023-04-07T21:05:45.880Z,7.85
2023-04-07T21:08:20.012Z,7.79
2023-04-07T21:10:54.588Z,7.65
2023-04-07T21:13:29.239Z,7.50
2023-04-07T21:16:03.908Z,7.38
2023-04-07T21:18:37.986Z,7.32
2023-04-07T21:21:11.280Z,7.18
2023-04-07T21:23:44.125Z,7.32
2023-04-07T21:26:19.113Z,7.23
2023-04-07T21:28:52.152Z,7.12
2023-04-07T21:31:25.687Z,6.92
2023-04-07T21:33:58.695Z,6.81
2023-04-07T21:36:32.825Z,6.28
2023-04-07T21:39:07.090Z,6.62
2023-04-07T21:41:42.009Z,6.42
2023-04-07T21:44:19.860Z,5.77
2023-04-07T21:46:52.772Z,6.11
2023-04-07T21:49:26.036Z,5.95
2023-04-07T21:52:00.168Z,5.79
2023-04-07T21:54:33.656Z,5.81
2023-04-07T21:57:08.163Z,6.08
2023-04-07T21:59:41.425Z,6.02
2023-04-07T22:02:14.797Z,5.97
2023-04-07T22:04:47.882Z,5.60
2023-04-07T22:07:20.735Z,5.78
2023-04-07T22:09:53.672Z,5.53
2023-04-07T22:12:27.849Z,5.40
2023-04-07T22:15:00.842Z,5.84
2023-04-07T22:17:36.275Z,5.92
2023-04-07T22:20:11.376Z,5.47
2023-04-07T22:22:44.230Z,5.73
2023-04-07T22:25:17.394Z,4.83
2023-04-07T22:27:52.515Z,5.41
2023-04-07T22:30:25.856Z,5.65
2023-04-07T22:32:59.021Z,5.38
2023-04-07T22:35:32.191Z,5.19
2023-04-07T22:38:05.537Z,5.17
2023-04-07T22:40:38.420Z,5.37
2023-04-07T22:43:12.709Z,5.30
2023-04-07T22:45:45.755Z,5.26
2023-04-07T22:48:19.278Z,4.97
2023-04-07T22:50:52.620Z,4.50
2023-04-07T22:53:26.055Z,4.32
2023-04-07T22:55:58.917Z,4.35
2023-04-07T22:58:33.237Z,4.62
2023-04-07T23:01:06.473Z,4.90
2023-04-07T23:03:39.447Z,4.91
2023-04-07T23:06:12.465Z,5.05
2023-04-07T23:08:46.603Z,4.36
2023-04-07T23:11:20.961Z,4.37
2023-04-07T23:13:56.393Z,4.80
2023-04-07T23:16:29.281Z,4.94
2023-04-07T23:19:02.155Z,4.86
2023-04-07T23:21:34.959Z,5.03
2023-04-07T23:24:07.886Z,4.90
2023-04-07T23:26:40.780Z,5.11
2023-04-07T23:29:14.979Z,4.27
2023-04-07T23:31:48.638Z,4.46
2023-04-07T23:34:21.613Z,4.80
2023-04-07T23:36:54.536Z,4.95
2023-04-07T23:39:27.586Z,4.38
2023-04-07T23:42:00.556Z,4.70
2023-04-07T23:44:34.768Z,4.75
2023-04-07T23:47:07.732Z,4.70
2023-04-07T23:49:40.610Z,4.68
2023-04-07T23:52:13.478Z,3.91
2023-04-07T23:54:46.279Z,4.45
2023-04-07T23:57:19.093Z,4.36
2023-04-07T23:59:53.689Z,3.76
